AAL908 SAEZ-KMIA
Flight info
| Callsign | AAL908 |
|---|---|
| Flight time | N/A |
| Altitude | 36000 |
| Route | BIVAM3A BIVAM UW8 PAR UL417 UBRIX/N0482F380 UL417 PABON/N0482F400 UL417 LENAX UL795 ALTIB UM779 ZEUSS VIICE2 |
| Aircraft | B772/H-SDE2E3FGHIJ5LORVWXY/LB1D1 |
Departure
| Time | 2026-05-05 00:58 |
|---|---|
| Airport | Ezeiza International Airport - Ministro Pistarini (SAEZ) |
Arrival
| Time | N/A |
|---|---|
| Airport | Miami International Airport (KMIA) |
| Time | Latitude | Longitude | Altitude | Speed | Heading |
|---|---|---|---|---|---|
| 2026-05-05 00:06 | -34.81299 | -58.53693 | 84 ft | 0 kts | 244° |
| 2026-05-05 00:44 | -34.81297 | -58.53688 | 85 ft | 2 kts | 242° |
| 2026-05-05 00:45 | -34.81287 | -58.53664 | 85 ft | 2 kts | 240° |
| 2026-05-05 00:45 | -34.81278 | -58.53647 | 85 ft | 2 kts | 237° |
| 2026-05-05 00:45 | -34.81272 | -58.53636 | 85 ft | 2 kts | 235° |
| 2026-05-05 00:45 | -34.81259 | -58.53615 | 85 ft | 2 kts | 226° |
| 2026-05-05 00:46 | -34.81247 | -58.53601 | 85 ft | 2 kts | 213° |
| 2026-05-05 00:46 | -34.81232 | -58.53592 | 85 ft | 2 kts | 192° |
| 2026-05-05 00:46 | -34.81216 | -58.53590 | 85 ft | 2 kts | 176° |
| 2026-05-05 00:46 | -34.81211 | -58.53590 | 85 ft | 0 kts | 177° |
| 2026-05-05 00:50 | -34.81220 | -58.53590 | 85 ft | 3 kts | 177° |
| 2026-05-05 00:50 | -34.81252 | -58.53588 | 85 ft | 6 kts | 177° |
| 2026-05-05 00:50 | -34.81306 | -58.53586 | 85 ft | 9 kts | 180° |
| 2026-05-05 00:50 | -34.81375 | -58.53595 | 83 ft | 11 kts | 191° |
| 2026-05-05 00:51 | -34.81458 | -58.53627 | 84 ft | 14 kts | 203° |
| 2026-05-05 00:51 | -34.81549 | -58.53682 | 82 ft | 16 kts | 215° |
| 2026-05-05 00:51 | -34.81637 | -58.53776 | 84 ft | 18 kts | 223° |
| 2026-05-05 00:51 | -34.81722 | -58.53894 | 84 ft | 19 kts | 238° |
| 2026-05-05 00:52 | -34.81786 | -58.54045 | 84 ft | 21 kts | 255° |
| 2026-05-05 00:52 | -34.81779 | -58.54225 | 83 ft | 22 kts | 277° |
| 2026-05-05 00:52 | -34.81759 | -58.54412 | 81 ft | 22 kts | 278° |
| 2026-05-05 00:52 | -34.81756 | -58.54443 | 81 ft | 0 kts | 277° |
| 2026-05-05 00:53 | -34.81755 | -58.54446 | 81 ft | 1 kts | 277° |
| 2026-05-05 00:53 | -34.81753 | -58.54468 | 83 ft | 4 kts | 277° |
| 2026-05-05 00:53 | -34.81752 | -58.54520 | 83 ft | 8 kts | 268° |
| 2026-05-05 00:53 | -34.81764 | -58.54608 | 82 ft | 13 kts | 258° |
| 2026-05-05 00:54 | -34.81781 | -58.54737 | 84 ft | 18 kts | 270° |
| 2026-05-05 00:54 | -34.81755 | -58.54894 | 83 ft | 21 kts | 283° |
| 2026-05-05 00:54 | -34.81720 | -58.55081 | 85 ft | 24 kts | 282° |
| 2026-05-05 00:54 | -34.81700 | -58.55266 | 83 ft | 19 kts | 256° |
| 2026-05-05 00:55 | -34.81737 | -58.55324 | 85 ft | 0 kts | 212° |
| 2026-05-05 00:55 | -34.81748 | -58.55330 | 84 ft | 4 kts | 204° |
| 2026-05-05 00:55 | -34.81800 | -58.55333 | 84 ft | 11 kts | 166° |
| 2026-05-05 00:55 | -34.81887 | -58.55303 | 88 ft | 14 kts | 164° |
| 2026-05-05 00:56 | -34.81921 | -58.55250 | 86 ft | 2 kts | 100° |
| 2026-05-05 00:57 | -34.81955 | -58.55056 | 85 ft | 64 kts | 102° |
| 2026-05-05 00:57 | -34.82115 | -58.54160 | 90 ft | 150 kts | 101° |
| 2026-05-05 00:57 | -34.82342 | -58.52732 | 545 ft | 180 kts | 99° |
| 2026-05-05 00:58 | -34.82626 | -58.51236 | 1402 ft | 187 kts | 108° |
| 2026-05-05 00:58 | -34.83263 | -58.49812 | 1809 ft | 198 kts | 122° |
| 2026-05-05 00:58 | -34.84035 | -58.48372 | 2195 ft | 206 kts | 120° |
| 2026-05-05 00:58 | -34.84832 | -58.46877 | 2592 ft | 216 kts | 125° |
| 2026-05-05 00:59 | -34.85749 | -58.45339 | 2827 ft | 232 kts | 125° |
| 2026-05-05 00:59 | -34.86713 | -58.43684 | 3141 ft | 246 kts | 125° |
| 2026-05-05 00:59 | -34.87698 | -58.41946 | 3546 ft | 257 kts | 124° |
| 2026-05-05 00:59 | -34.88836 | -58.40195 | 3752 ft | 271 kts | 142° |
| 2026-05-05 01:00 | -34.90504 | -58.39119 | 4259 ft | 275 kts | 166° |
| 2026-05-05 01:00 | -34.92382 | -58.38741 | 4817 ft | 273 kts | 177° |
| 2026-05-05 01:00 | -34.94245 | -58.39011 | 5222 ft | 273 kts | 208° |
| 2026-05-05 01:00 | -34.95713 | -58.40413 | 5784 ft | 269 kts | 234° |
| 2026-05-05 01:01 | -34.96626 | -58.42392 | 6383 ft | 268 kts | 250° |
| 2026-05-05 01:01 | -34.97345 | -58.44484 | 6950 ft | 269 kts | 246° |
| 2026-05-05 01:01 | -34.98056 | -58.46572 | 7577 ft | 265 kts | 258° |
| 2026-05-05 01:01 | -34.97988 | -58.48807 | 8078 ft | 270 kts | 287° |
| 2026-05-05 01:02 | -34.97038 | -58.50788 | 8706 ft | 276 kts | 309° |
| 2026-05-05 01:02 | -34.95481 | -58.52203 | 9294 ft | 286 kts | 329° |
| 2026-05-05 01:02 | -34.93520 | -58.52820 | 9745 ft | 298 kts | 350° |
| 2026-05-05 01:02 | -34.91408 | -58.52957 | 10085 ft | 310 kts | 352° |
| 2026-05-05 01:03 | -34.89187 | -58.53076 | 10216 ft | 330 kts | 352° |
| 2026-05-05 01:03 | -34.86826 | -58.53224 | 10365 ft | 350 kts | 352° |
| 2026-05-05 01:03 | -34.84325 | -58.53403 | 10530 ft | 370 kts | 352° |
| 2026-05-05 01:03 | -34.81696 | -58.53592 | 10871 ft | 385 kts | 352° |
| 2026-05-05 01:04 | -34.79015 | -58.53869 | 11357 ft | 389 kts | 346° |
| 2026-05-05 01:04 | -34.73845 | -58.55740 | 12878 ft | 388 kts | 334° |
| 2026-05-05 01:04 | -34.71300 | -58.56884 | 13721 ft | 392 kts | 334° |
| 2026-05-05 01:05 | -34.68726 | -58.58033 | 14459 ft | 395 kts | 334° |
| 2026-05-05 01:05 | -34.66134 | -58.59183 | 15230 ft | 398 kts | 334° |
| 2026-05-05 01:05 | -34.63524 | -58.60333 | 15999 ft | 400 kts | 334° |
| 2026-05-05 01:05 | -34.60900 | -58.61485 | 16779 ft | 403 kts | 334° |
| 2026-05-05 01:06 | -34.58251 | -58.62644 | 17537 ft | 406 kts | 334° |
| 2026-05-05 01:06 | -34.55586 | -58.63808 | 18283 ft | 409 kts | 334° |
| 2026-05-05 01:06 | -34.52889 | -58.64984 | 18947 ft | 412 kts | 334° |
| 2026-05-05 01:06 | -34.50185 | -58.66163 | 19639 ft | 416 kts | 334° |
| 2026-05-05 01:07 | -34.47449 | -58.67354 | 20304 ft | 419 kts | 334° |
| 2026-05-05 01:07 | -34.44701 | -58.68550 | 20965 ft | 422 kts | 334° |
| 2026-05-05 01:07 | -34.41925 | -58.69757 | 21597 ft | 425 kts | 334° |
| 2026-05-05 01:07 | -34.39125 | -58.70974 | 22213 ft | 429 kts | 334° |
| 2026-05-05 01:08 | -34.36308 | -58.72198 | 22781 ft | 432 kts | 334° |
| 2026-05-05 01:08 | -34.33465 | -58.73432 | 23347 ft | 435 kts | 334° |
| 2026-05-05 01:08 | -34.30602 | -58.74673 | 23814 ft | 439 kts | 334° |
| 2026-05-05 01:08 | -34.27722 | -58.75921 | 24275 ft | 442 kts | 334° |
| 2026-05-05 01:09 | -34.24817 | -58.77178 | 24716 ft | 444 kts | 334° |
| 2026-05-05 01:09 | -34.21894 | -58.78443 | 25145 ft | 447 kts | 334° |
| 2026-05-05 01:09 | -34.18956 | -58.79713 | 25555 ft | 450 kts | 334° |
| 2026-05-05 01:09 | -34.16023 | -58.81059 | 25952 ft | 450 kts | 330° |
| 2026-05-05 01:10 | -34.13208 | -58.82696 | 26332 ft | 448 kts | 324° |
| 2026-05-05 01:10 | -34.10551 | -58.84647 | 26709 ft | 448 kts | 322° |
| 2026-05-05 01:10 | -34.07899 | -58.86644 | 27063 ft | 451 kts | 322° |
| 2026-05-05 01:10 | -34.05224 | -58.88638 | 27418 ft | 454 kts | 322° |
| 2026-05-05 01:11 | -34.02521 | -58.90632 | 27764 ft | 456 kts | 323° |
| 2026-05-05 01:11 | -33.99805 | -58.92623 | 28087 ft | 458 kts | 323° |
| 2026-05-05 01:11 | -33.97069 | -58.94623 | 28398 ft | 461 kts | 323° |
| 2026-05-05 01:11 | -33.94324 | -58.96631 | 28677 ft | 463 kts | 323° |
| 2026-05-05 01:12 | -33.91564 | -58.98648 | 28925 ft | 465 kts | 323° |
| 2026-05-05 01:12 | -33.88793 | -59.00671 | 29179 ft | 467 kts | 323° |
| 2026-05-05 01:12 | -33.86007 | -59.02705 | 29426 ft | 469 kts | 323° |
| 2026-05-05 01:12 | -33.83211 | -59.04745 | 29639 ft | 471 kts | 323° |
| 2026-05-05 01:13 | -33.80445 | -59.06761 | 29876 ft | 472 kts | 323° |
| 2026-05-05 01:13 | -33.77639 | -59.08805 | 30134 ft | 472 kts | 323° |
| 2026-05-05 01:13 | -33.74836 | -59.10843 | 30429 ft | 470 kts | 323° |
| 2026-05-05 01:13 | -33.72043 | -59.12873 | 30732 ft | 468 kts | 323° |
| 2026-05-05 01:14 | -33.69258 | -59.14896 | 31007 ft | 467 kts | 323° |
| 2026-05-05 01:14 | -33.66476 | -59.16915 | 31271 ft | 466 kts | 323° |
| 2026-05-05 01:14 | -33.63706 | -59.18925 | 31538 ft | 465 kts | 323° |
| 2026-05-05 01:14 | -33.60936 | -59.20934 | 31809 ft | 464 kts | 323° |
| 2026-05-05 01:15 | -33.58175 | -59.22935 | 32066 ft | 463 kts | 322° |
| 2026-05-05 01:15 | -33.55420 | -59.24929 | 32325 ft | 462 kts | 322° |
| 2026-05-05 01:15 | -33.52669 | -59.26920 | 32580 ft | 462 kts | 322° |
| 2026-05-05 01:15 | -33.49916 | -59.28910 | 32827 ft | 461 kts | 322° |
| 2026-05-05 01:16 | -33.47175 | -59.30891 | 33097 ft | 460 kts | 322° |
| 2026-05-05 01:16 | -33.44441 | -59.32864 | 33375 ft | 459 kts | 322° |
| 2026-05-05 01:16 | -33.41710 | -59.34834 | 33645 ft | 458 kts | 322° |
| 2026-05-05 01:16 | -33.38985 | -59.36798 | 33887 ft | 457 kts | 322° |
| 2026-05-05 01:17 | -33.36265 | -59.38757 | 34128 ft | 456 kts | 322° |
| 2026-05-05 01:17 | -33.33553 | -59.40709 | 34344 ft | 455 kts | 322° |
| 2026-05-05 01:17 | -33.30837 | -59.42663 | 34546 ft | 455 kts | 322° |
| 2026-05-05 01:17 | -33.28128 | -59.44610 | 34751 ft | 454 kts | 322° |
| 2026-05-05 01:18 | -33.25420 | -59.46555 | 34965 ft | 454 kts | 322° |
| 2026-05-05 01:18 | -33.22718 | -59.48494 | 35169 ft | 453 kts | 322° |
| 2026-05-05 01:18 | -33.20018 | -59.50430 | 35382 ft | 453 kts | 322° |
| 2026-05-05 01:18 | -33.17318 | -59.52365 | 35571 ft | 452 kts | 322° |
| 2026-05-05 01:19 | -33.14624 | -59.54295 | 35758 ft | 452 kts | 322° |
| 2026-05-05 01:19 | -33.11916 | -59.56234 | 35837 ft | 454 kts | 322° |
| 2026-05-05 01:19 | -33.06497 | -59.60108 | 35916 ft | 454 kts | 322° |
| 2026-05-05 01:20 | -33.01100 | -59.63957 | 35913 ft | 451 kts | 322° |
| 2026-05-05 01:20 | -32.95721 | -59.67790 | 35918 ft | 450 kts | 322° |
| 2026-05-05 01:21 | -32.90354 | -59.71611 | 35925 ft | 449 kts | 322° |
| 2026-05-05 01:21 | -32.84983 | -59.75429 | 35926 ft | 450 kts | 322° |
| 2026-05-05 01:22 | -32.79605 | -59.79247 | 35926 ft | 450 kts | 322° |
| 2026-05-05 01:22 | -32.74219 | -59.83064 | 35925 ft | 451 kts | 322° |
| 2026-05-05 01:23 | -32.68824 | -59.86882 | 35928 ft | 452 kts | 322° |
| 2026-05-05 01:23 | -32.63415 | -59.90705 | 35926 ft | 452 kts | 322° |
| 2026-05-05 01:24 | -32.58004 | -59.94525 | 35921 ft | 453 kts | 322° |
| 2026-05-05 01:24 | -32.52586 | -59.98344 | 35938 ft | 453 kts | 322° |
| 2026-05-05 01:25 | -32.47165 | -60.02163 | 35926 ft | 454 kts | 322° |
| 2026-05-05 01:25 | -32.41735 | -60.05984 | 35924 ft | 454 kts | 322° |
| 2026-05-05 01:26 | -32.36311 | -60.09795 | 35916 ft | 454 kts | 322° |
| 2026-05-05 01:26 | -32.30882 | -60.13605 | 35931 ft | 453 kts | 322° |
| 2026-05-05 01:27 | -32.25457 | -60.17406 | 35925 ft | 453 kts | 322° |
| 2026-05-05 01:27 | -32.20032 | -60.21202 | 35928 ft | 453 kts | 322° |
| 2026-05-05 01:28 | -32.15519 | -60.24356 | 35920 ft | 453 kts | 322° |
| 2026-05-05 01:28 | -32.09183 | -60.28777 | 35917 ft | 453 kts | 322° |
| 2026-05-05 01:29 | -32.04674 | -60.31920 | 35923 ft | 453 kts | 322° |
| 2026-05-05 01:29 | -31.99247 | -60.35696 | 35930 ft | 453 kts | 322° |
| 2026-05-05 01:30 | -31.93822 | -60.39468 | 35930 ft | 453 kts | 322° |
| 2026-05-05 01:30 | -31.88395 | -60.43236 | 35937 ft | 453 kts | 322° |
| 2026-05-05 01:31 | -31.82962 | -60.46997 | 35939 ft | 454 kts | 323° |
| 2026-05-05 01:31 | -31.77171 | -60.50120 | 35934 ft | 464 kts | 333° |
| 2026-05-05 01:32 | -31.71070 | -60.52620 | 35937 ft | 464 kts | 333° |
| 2026-05-05 01:32 | -31.64972 | -60.55126 | 35935 ft | 464 kts | 333° |
| 2026-05-05 01:33 | -31.58887 | -60.57653 | 35930 ft | 464 kts | 333° |
| 2026-05-05 01:33 | -31.52793 | -60.60193 | 35913 ft | 465 kts | 333° |
| 2026-05-05 01:34 | -31.46701 | -60.62731 | 35915 ft | 465 kts | 333° |
| 2026-05-05 01:34 | -31.40605 | -60.65265 | 35919 ft | 465 kts | 333° |
| 2026-05-05 01:35 | -31.34550 | -60.67778 | 35915 ft | 465 kts | 333° |
| 2026-05-05 01:35 | -31.28454 | -60.70305 | 35913 ft | 465 kts | 333° |
| 2026-05-05 01:36 | -31.22359 | -60.72827 | 35915 ft | 465 kts | 333° |
| 2026-05-05 01:36 | -31.16265 | -60.75347 | 35915 ft | 464 kts | 333° |
| 2026-05-05 01:37 | -31.10169 | -60.77863 | 35919 ft | 464 kts | 333° |
| 2026-05-05 01:37 | -31.04073 | -60.80376 | 35917 ft | 464 kts | 333° |
| 2026-05-05 01:38 | -30.97979 | -60.82886 | 35921 ft | 464 kts | 333° |
| 2026-05-05 01:38 | -30.91884 | -60.85392 | 35914 ft | 464 kts | 333° |
| 2026-05-05 01:39 | -30.85795 | -60.87893 | 35923 ft | 464 kts | 333° |
| 2026-05-05 01:39 | -30.79707 | -60.90391 | 35921 ft | 464 kts | 333° |
| 2026-05-05 01:40 | -30.73612 | -60.92889 | 35921 ft | 464 kts | 333° |
| 2026-05-05 01:40 | -30.67520 | -60.95383 | 35922 ft | 464 kts | 333° |
| 2026-05-05 01:41 | -30.61419 | -60.97877 | 35921 ft | 465 kts | 333° |
| 2026-05-05 01:41 | -30.55320 | -61.00367 | 35915 ft | 465 kts | 333° |
| 2026-05-05 01:42 | -30.49217 | -61.02856 | 35915 ft | 465 kts | 333° |
| 2026-05-05 01:42 | -30.43121 | -61.05339 | 35914 ft | 465 kts | 333° |
| 2026-05-05 01:43 | -30.37055 | -61.07805 | 35912 ft | 465 kts | 333° |
| 2026-05-05 01:43 | -30.30939 | -61.10285 | 35920 ft | 465 kts | 333° |
| 2026-05-05 01:44 | -30.24826 | -61.12759 | 35917 ft | 466 kts | 333° |
| 2026-05-05 01:44 | -30.18701 | -61.15236 | 35916 ft | 466 kts | 333° |
| 2026-05-05 01:45 | -30.12577 | -61.17710 | 35912 ft | 466 kts | 333° |
| 2026-05-05 01:45 | -30.06439 | -61.20187 | 35912 ft | 467 kts | 333° |
| 2026-05-05 01:46 | -30.00304 | -61.22659 | 35924 ft | 467 kts | 333° |
| 2026-05-05 01:46 | -29.94166 | -61.25129 | 35918 ft | 468 kts | 333° |
| 2026-05-05 01:47 | -29.88021 | -61.27598 | 35918 ft | 468 kts | 333° |
| 2026-05-05 01:47 | -29.81868 | -61.30068 | 35913 ft | 468 kts | 333° |
| 2026-05-05 01:48 | -29.75711 | -61.32535 | 35922 ft | 468 kts | 333° |
| 2026-05-05 01:48 | -29.69547 | -61.35003 | 35919 ft | 469 kts | 333° |
| 2026-05-05 01:49 | -29.63383 | -61.37467 | 35915 ft | 469 kts | 333° |
| 2026-05-05 01:49 | -29.57219 | -61.39928 | 35915 ft | 469 kts | 333° |
| 2026-05-05 01:50 | -29.51093 | -61.42371 | 35919 ft | 469 kts | 333° |
| 2026-05-05 01:50 | -29.44924 | -61.44827 | 35913 ft | 469 kts | 333° |
| 2026-05-05 01:51 | -29.38743 | -61.47286 | 35914 ft | 470 kts | 333° |
| 2026-05-05 01:51 | -29.32566 | -61.49739 | 35914 ft | 470 kts | 333° |
| 2026-05-05 01:52 | -29.26384 | -61.52191 | 35912 ft | 470 kts | 333° |
| 2026-05-05 01:52 | -29.20197 | -61.54643 | 35918 ft | 470 kts | 333° |
| 2026-05-05 01:53 | -29.14010 | -61.57091 | 35918 ft | 471 kts | 333° |
| 2026-05-05 01:53 | -29.07816 | -61.59539 | 35913 ft | 471 kts | 333° |
| 2026-05-05 01:54 | -29.01621 | -61.61984 | 35911 ft | 471 kts | 333° |
| 2026-05-05 01:54 | -28.95422 | -61.64428 | 35913 ft | 471 kts | 333° |
| 2026-05-05 01:55 | -28.89225 | -61.66868 | 35914 ft | 471 kts | 333° |
| 2026-05-05 01:55 | -28.83023 | -61.69307 | 35915 ft | 472 kts | 333° |
| 2026-05-05 01:56 | -28.76818 | -61.71744 | 35918 ft | 472 kts | 333° |
| 2026-05-05 01:56 | -28.70610 | -61.74177 | 35913 ft | 472 kts | 333° |
| 2026-05-05 01:57 | -28.64385 | -61.76595 | 35911 ft | 473 kts | 333° |
| 2026-05-05 01:57 | -28.58159 | -61.79009 | 35911 ft | 473 kts | 333° |
| 2026-05-05 01:58 | -28.51928 | -61.81426 | 35911 ft | 473 kts | 333° |
| 2026-05-05 01:58 | -28.45694 | -61.83845 | 35909 ft | 473 kts | 333° |
| 2026-05-05 01:59 | -28.39461 | -61.86276 | 35912 ft | 473 kts | 333° |
| 2026-05-05 01:59 | -28.33227 | -61.88708 | 35909 ft | 474 kts | 333° |
| 2026-05-05 02:00 | -28.27025 | -61.91122 | 35911 ft | 474 kts | 333° |
| 2026-05-05 02:00 | -28.20743 | -61.93564 | 35909 ft | 474 kts | 333° |
| 2026-05-05 02:01 | -28.14509 | -61.95984 | 35910 ft | 474 kts | 333° |
| 2026-05-05 02:01 | -28.08268 | -61.98404 | 35909 ft | 474 kts | 333° |
| 2026-05-05 02:02 | -28.02028 | -62.00820 | 35912 ft | 474 kts | 333° |
| 2026-05-05 02:02 | -27.95825 | -62.03219 | 35905 ft | 474 kts | 333° |
| 2026-05-05 02:03 | -27.89583 | -62.05630 | 35923 ft | 474 kts | 333° |
| 2026-05-05 02:03 | -27.83334 | -62.08042 | 35907 ft | 474 kts | 333° |
| 2026-05-05 02:04 | -27.77088 | -62.10449 | 35905 ft | 475 kts | 333° |
| 2026-05-05 02:04 | -27.70838 | -62.12854 | 35914 ft | 475 kts | 333° |
| 2026-05-05 02:05 | -27.64589 | -62.15256 | 35915 ft | 475 kts | 333° |
| 2026-05-05 02:05 | -27.58335 | -62.17657 | 35906 ft | 474 kts | 333° |
| 2026-05-05 02:06 | -27.52085 | -62.20054 | 35904 ft | 474 kts | 333° |
| 2026-05-05 02:06 | -27.45835 | -62.22448 | 35910 ft | 474 kts | 333° |
| 2026-05-05 02:07 | -27.39588 | -62.24838 | 35907 ft | 474 kts | 333° |
| 2026-05-05 02:07 | -27.33346 | -62.27224 | 35909 ft | 474 kts | 333° |
| 2026-05-05 02:08 | -27.27101 | -62.29608 | 35903 ft | 474 kts | 333° |
| 2026-05-05 02:08 | -27.20858 | -62.31986 | 35906 ft | 473 kts | 333° |
| 2026-05-05 02:09 | -27.14622 | -62.34356 | 35905 ft | 473 kts | 333° |
| 2026-05-05 02:09 | -27.08387 | -62.36725 | 35901 ft | 473 kts | 333° |
| 2026-05-05 02:10 | -27.03159 | -62.38709 | 35908 ft | 473 kts | 333° |
| 2026-05-05 02:10 | -26.95918 | -62.41454 | 35905 ft | 473 kts | 333° |
| 2026-05-05 02:11 | -26.89687 | -62.43814 | 35905 ft | 473 kts | 333° |
| 2026-05-05 02:11 | -26.84513 | -62.45771 | 35907 ft | 472 kts | 333° |
| 2026-05-05 02:12 | -26.75173 | -62.49299 | 35903 ft | 472 kts | 333° |
| 2026-05-05 02:13 | -26.68945 | -62.51648 | 35902 ft | 472 kts | 333° |
| 2026-05-05 02:13 | -26.62713 | -62.53996 | 35903 ft | 472 kts | 333° |
| 2026-05-05 02:14 | -26.56480 | -62.56342 | 35912 ft | 473 kts | 333° |
| 2026-05-05 02:14 | -26.50243 | -62.58687 | 35915 ft | 473 kts | 333° |
| 2026-05-05 02:15 | -26.43996 | -62.61032 | 35912 ft | 473 kts | 333° |
| 2026-05-05 02:15 | -26.37750 | -62.63374 | 35909 ft | 474 kts | 333° |
| 2026-05-05 02:16 | -26.31499 | -62.65716 | 35905 ft | 474 kts | 333° |
| 2026-05-05 02:16 | -26.25243 | -62.68057 | 35907 ft | 474 kts | 333° |
| 2026-05-05 02:17 | -26.18974 | -62.70400 | 36158 ft | 475 kts | 333° |
| 2026-05-05 02:17 | -26.15848 | -62.71565 | 36447 ft | 472 kts | 332° |
| 2026-05-05 02:17 | -26.12746 | -62.72720 | 36767 ft | 469 kts | 332° |
| 2026-05-05 02:17 | -26.09663 | -62.73868 | 37067 ft | 466 kts | 332° |
| 2026-05-05 02:18 | -26.06597 | -62.75010 | 37312 ft | 464 kts | 332° |
| 2026-05-05 02:18 | -26.03577 | -62.76137 | 37511 ft | 463 kts | 332° |
| 2026-05-05 02:18 | -26.00524 | -62.77276 | 37699 ft | 463 kts | 332° |
| 2026-05-05 02:18 | -25.97471 | -62.78414 | 37825 ft | 463 kts | 332° |
| 2026-05-05 02:19 | -25.94407 | -62.79556 | 37869 ft | 464 kts | 332° |
| 2026-05-05 02:19 | -25.88284 | -62.81832 | 37895 ft | 464 kts | 332° |
| 2026-05-05 02:20 | -25.82135 | -62.84115 | 37909 ft | 462 kts | 332° |
| 2026-05-05 02:20 | -25.76082 | -62.86360 | 37907 ft | 461 kts | 332° |
| 2026-05-05 02:21 | -25.69970 | -62.88562 | 37910 ft | 462 kts | 333° |
| 2026-05-05 02:21 | -25.63833 | -62.90687 | 37909 ft | 462 kts | 333° |
| 2026-05-05 02:22 | -25.57701 | -62.92807 | 37906 ft | 462 kts | 333° |
| 2026-05-05 02:22 | -25.51569 | -62.94939 | 37902 ft | 462 kts | 333° |
| 2026-05-05 02:23 | -25.45434 | -62.97075 | 37904 ft | 462 kts | 333° |
| 2026-05-05 02:23 | -25.39292 | -62.99212 | 37909 ft | 463 kts | 333° |
| 2026-05-05 02:24 | -25.33141 | -63.01349 | 37911 ft | 464 kts | 333° |
| 2026-05-05 02:24 | -25.26980 | -63.03488 | 37909 ft | 464 kts | 333° |
| 2026-05-05 02:25 | -25.20818 | -63.05623 | 37908 ft | 464 kts | 333° |
| 2026-05-05 02:25 | -25.14645 | -63.07761 | 37908 ft | 465 kts | 333° |
| 2026-05-05 02:26 | -25.08472 | -63.09896 | 37908 ft | 465 kts | 334° |
| 2026-05-05 02:26 | -25.02306 | -63.12027 | 37905 ft | 464 kts | 334° |
| 2026-05-05 02:27 | -24.96143 | -63.14154 | 37901 ft | 464 kts | 334° |
| 2026-05-05 02:27 | -24.89982 | -63.16278 | 37904 ft | 463 kts | 334° |
| 2026-05-05 02:28 | -24.83836 | -63.18396 | 37905 ft | 463 kts | 334° |
| 2026-05-05 02:28 | -24.77689 | -63.20511 | 37905 ft | 462 kts | 334° |
| 2026-05-05 02:29 | -24.71549 | -63.22623 | 37908 ft | 462 kts | 334° |
| 2026-05-05 02:29 | -24.65421 | -63.24728 | 37922 ft | 461 kts | 334° |
| 2026-05-05 02:30 | -24.59290 | -63.26831 | 37914 ft | 461 kts | 334° |
| 2026-05-05 02:30 | -24.53159 | -63.28933 | 37908 ft | 461 kts | 334° |
| 2026-05-05 02:31 | -24.47034 | -63.31031 | 37907 ft | 461 kts | 334° |
| 2026-05-05 02:31 | -24.40902 | -63.33130 | 37910 ft | 461 kts | 334° |
| 2026-05-05 02:32 | -24.34774 | -63.35226 | 37910 ft | 461 kts | 334° |
| 2026-05-05 02:32 | -24.28640 | -63.37321 | 37909 ft | 462 kts | 334° |
| 2026-05-05 02:33 | -24.22507 | -63.39415 | 37908 ft | 462 kts | 334° |
| 2026-05-05 02:33 | -24.16364 | -63.41509 | 37906 ft | 462 kts | 334° |
| 2026-05-05 02:34 | -24.10216 | -63.43603 | 37905 ft | 463 kts | 334° |
| 2026-05-05 02:34 | -24.04066 | -63.45695 | 37906 ft | 463 kts | 334° |
| 2026-05-05 02:35 | -23.97912 | -63.47787 | 37910 ft | 463 kts | 334° |
| 2026-05-05 02:35 | -23.91747 | -63.49880 | 37910 ft | 464 kts | 334° |
| 2026-05-05 02:36 | -23.85626 | -63.51957 | 37905 ft | 464 kts | 334° |
| 2026-05-05 02:36 | -23.79458 | -63.54047 | 37911 ft | 464 kts | 335° |
| 2026-05-05 02:37 | -23.73288 | -63.56135 | 37908 ft | 464 kts | 335° |
| 2026-05-05 02:37 | -23.67120 | -63.58221 | 37916 ft | 464 kts | 335° |
| 2026-05-05 02:38 | -23.60943 | -63.60309 | 37910 ft | 464 kts | 335° |
| 2026-05-05 02:38 | -23.54765 | -63.62394 | 37913 ft | 465 kts | 335° |
| 2026-05-05 02:39 | -23.48584 | -63.64478 | 37908 ft | 465 kts | 335° |
| 2026-05-05 02:39 | -23.42405 | -63.66560 | 37913 ft | 465 kts | 335° |
| 2026-05-05 02:40 | -23.36225 | -63.68639 | 37910 ft | 465 kts | 335° |
| 2026-05-05 02:40 | -23.30037 | -63.70720 | 37914 ft | 465 kts | 335° |
| 2026-05-05 02:41 | -23.23848 | -63.72799 | 37907 ft | 466 kts | 335° |
| 2026-05-05 02:41 | -23.17656 | -63.74877 | 37908 ft | 466 kts | 335° |
| 2026-05-05 02:42 | -23.11462 | -63.76953 | 37910 ft | 466 kts | 335° |
| 2026-05-05 02:42 | -23.06311 | -63.78679 | 37910 ft | 466 kts | 335° |